sensor_id;sensor_type;location;lat;lon;timestamp;P1;durP1;ratioP1;P2;durP2;ratioP2
3718;SDS011;1875;52.492;6.860;2022-12-18T00:01:19;8.75;;;4.38;;
3718;SDS011;1875;52.492;6.860;2022-12-18T00:03:50;8.35;;;3.70;;
3718;SDS011;1875;52.492;6.860;2022-12-18T00:06:18;7.63;;;3.40;;
3718;SDS011;1875;52.492;6.860;2022-12-18T00:08:47;9.15;;;5.05;;
3718;SDS011;1875;52.492;6.860;2022-12-18T00:11:15;6.90;;;3.80;;
3718;SDS011;1875;52.492;6.860;2022-12-18T00:13:44;8.35;;;3.75;;
3718;SDS011;1875;52.492;6.860;2022-12-18T00:16:12;8.85;;;5.07;;
3718;SDS011;1875;52.492;6.860;2022-12-18T00:18:41;7.72;;;3.85;;
3718;SDS011;1875;52.492;6.860;2022-12-18T00:21:11;7.00;;;3.90;;
3718;SDS011;1875;52.492;6.860;2022-12-18T00:23:40;6.80;;;2.97;;
3718;SDS011;1875;52.492;6.860;2022-12-18T00:26:10;6.20;;;3.20;;
3718;SDS011;1875;52.492;6.860;2022-12-18T00:28:38;5.72;;;3.95;;
3718;SDS011;1875;52.492;6.860;2022-12-18T00:31:07;6.50;;;3.63;;
3718;SDS011;1875;52.492;6.860;2022-12-18T00:33:36;7.45;;;4.45;;
3718;SDS011;1875;52.492;6.860;2022-12-18T00:36:05;7.22;;;5.25;;
3718;SDS011;1875;52.492;6.860;2022-12-18T00:38:35;5.03;;;2.55;;
3718;SDS011;1875;52.492;6.860;2022-12-18T00:41:03;7.50;;;4.25;;
3718;SDS011;1875;52.492;6.860;2022-12-18T00:43:32;7.15;;;3.63;;
3718;SDS011;1875;52.492;6.860;2022-12-18T00:46:00;6.55;;;2.63;;
3718;SDS011;1875;52.492;6.860;2022-12-18T00:48:28;7.18;;;3.42;;
3718;SDS011;1875;52.492;6.860;2022-12-18T00:50:56;6.40;;;2.47;;
3718;SDS011;1875;52.492;6.860;2022-12-18T00:53:24;6.05;;;2.55;;
3718;SDS011;1875;52.492;6.860;2022-12-18T00:55:53;6.22;;;2.40;;
3718;SDS011;1875;52.492;6.860;2022-12-18T00:58:20;6.88;;;3.03;;
3718;SDS011;1875;52.492;6.860;2022-12-18T01:00:48;6.05;;;3.60;;
3718;SDS011;1875;52.492;6.860;2022-12-18T01:03:16;6.22;;;2.88;;
3718;SDS011;1875;52.492;6.860;2022-12-18T01:05:44;5.97;;;2.95;;
3718;SDS011;1875;52.492;6.860;2022-12-18T01:08:11;7.53;;;4.43;;
3718;SDS011;1875;52.492;6.860;2022-12-18T01:10:39;6.90;;;3.38;;
3718;SDS011;1875;52.492;6.860;2022-12-18T01:13:09;7.10;;;3.67;;
3718;SDS011;1875;52.492;6.860;2022-12-18T01:15:37;6.45;;;2.58;;
3718;SDS011;1875;52.492;6.860;2022-12-18T01:18:04;5.75;;;3.10;;
3718;SDS011;1875;52.492;6.860;2022-12-18T01:20:32;5.82;;;3.85;;
3718;SDS011;1875;52.492;6.860;2022-12-18T01:23:00;5.40;;;2.63;;
3718;SDS011;1875;52.492;6.860;2022-12-18T01:25:27;6.90;;;3.22;;
3718;SDS011;1875;52.492;6.860;2022-12-18T01:27:55;5.43;;;2.85;;
3718;SDS011;1875;52.492;6.860;2022-12-18T01:30:24;5.28;;;2.25;;
3718;SDS011;1875;52.492;6.860;2022-12-18T01:32:52;7.15;;;4.38;;
3718;SDS011;1875;52.492;6.860;2022-12-18T01:35:20;6.28;;;2.78;;
3718;SDS011;1875;52.492;6.860;2022-12-18T01:37:47;6.38;;;2.63;;
3718;SDS011;1875;52.492;6.860;2022-12-18T01:40:15;6.20;;;2.00;;
3718;SDS011;1875;52.492;6.860;2022-12-18T01:42:43;7.32;;;4.13;;
3718;SDS011;1875;52.492;6.860;2022-12-18T01:45:27;6.90;;;3.50;;
3718;SDS011;1875;52.492;6.860;2022-12-18T01:47:57;6.05;;;2.60;;
3718;SDS011;1875;52.492;6.860;2022-12-18T01:50:27;7.28;;;4.00;;
3718;SDS011;1875;52.492;6.860;2022-12-18T01:52:58;5.93;;;2.55;;
3718;SDS011;1875;52.492;6.860;2022-12-18T01:55:28;5.55;;;2.45;;
3718;SDS011;1875;52.492;6.860;2022-12-18T01:57:58;6.75;;;3.88;;
3718;SDS011;1875;52.492;6.860;2022-12-18T02:00:28;6.00;;;3.47;;
3718;SDS011;1875;52.492;6.860;2022-12-18T02:02:56;3.55;;;2.17;;
3718;SDS011;1875;52.492;6.860;2022-12-18T02:05:26;4.88;;;2.65;;
3718;SDS011;1875;52.492;6.860;2022-12-18T02:08:02;5.47;;;3.03;;
3718;SDS011;1875;52.492;6.860;2022-12-18T02:10:35;5.80;;;2.92;;
3718;SDS011;1875;52.492;6.860;2022-12-18T02:13:10;5.55;;;3.10;;
3718;SDS011;1875;52.492;6.860;2022-12-18T02:15:43;2.83;;;2.03;;
3718;SDS011;1875;52.492;6.860;2022-12-18T02:18:13;4.40;;;3.15;;
3718;SDS011;1875;52.492;6.860;2022-12-18T02:20:45;4.60;;;3.25;;
3718;SDS011;1875;52.492;6.860;2022-12-18T02:23:19;5.43;;;2.55;;
3718;SDS011;1875;52.492;6.860;2022-12-18T02:26:00;4.88;;;2.25;;
3718;SDS011;1875;52.492;6.860;2022-12-18T02:28:34;3.88;;;2.50;;
3718;SDS011;1875;52.492;6.860;2022-12-18T02:31:04;7.03;;;6.43;;
3718;SDS011;1875;52.492;6.860;2022-12-18T02:33:34;4.57;;;3.00;;
3718;SDS011;1875;52.492;6.860;2022-12-18T02:36:03;6.35;;;4.15;;
3718;SDS011;1875;52.492;6.860;2022-12-18T02:38:32;5.60;;;3.10;;
3718;SDS011;1875;52.492;6.860;2022-12-18T02:41:02;9.75;;;5.30;;
3718;SDS011;1875;52.492;6.860;2022-12-18T02:43:31;5.35;;;2.55;;
3718;SDS011;1875;52.492;6.860;2022-12-18T02:46:00;5.32;;;3.17;;
3718;SDS011;1875;52.492;6.860;2022-12-18T02:48:29;4.68;;;3.13;;
3718;SDS011;1875;52.492;6.860;2022-12-18T02:50:59;20.33;;;15.80;;
3718;SDS011;1875;52.492;6.860;2022-12-18T02:53:33;5.07;;;2.05;;
3718;SDS011;1875;52.492;6.860;2022-12-18T02:56:07;6.30;;;5.15;;
3718;SDS011;1875;52.492;6.860;2022-12-18T02:58:40;3.47;;;2.53;;
3718;SDS011;1875;52.492;6.860;2022-12-18T03:01:14;5.13;;;3.78;;
3718;SDS011;1875;52.492;6.860;2022-12-18T03:03:45;5.05;;;2.75;;
3718;SDS011;1875;52.492;6.860;2022-12-18T03:06:17;8.30;;;5.57;;
3718;SDS011;1875;52.492;6.860;2022-12-18T03:08:49;6.07;;;4.15;;
3718;SDS011;1875;52.492;6.860;2022-12-18T03:11:21;6.97;;;3.20;;
3718;SDS011;1875;52.492;6.860;2022-12-18T03:14:05;4.82;;;3.90;;
3718;SDS011;1875;52.492;6.860;2022-12-18T03:16:34;5.30;;;3.55;;
3718;SDS011;1875;52.492;6.860;2022-12-18T03:19:03;3.70;;;2.30;;
3718;SDS011;1875;52.492;6.860;2022-12-18T03:21:36;6.05;;;2.53;;
3718;SDS011;1875;52.492;6.860;2022-12-18T03:24:06;7.43;;;4.32;;
3718;SDS011;1875;52.492;6.860;2022-12-18T03:26:36;6.10;;;2.22;;
3718;SDS011;1875;52.492;6.860;2022-12-18T03:29:07;5.43;;;3.08;;
3718;SDS011;1875;52.492;6.860;2022-12-18T03:31:37;6.45;;;2.50;;
3718;SDS011;1875;52.492;6.860;2022-12-18T03:34:05;17.58;;;10.18;;
3718;SDS011;1875;52.492;6.860;2022-12-18T03:36:37;7.88;;;3.50;;
3718;SDS011;1875;52.492;6.860;2022-12-18T03:39:05;19.77;;;10.80;;
3718;SDS011;1875;52.492;6.860;2022-12-18T03:41:33;9.55;;;4.47;;
3718;SDS011;1875;52.492;6.860;2022-12-18T03:44:11;8.05;;;3.65;;
3718;SDS011;1875;52.492;6.860;2022-12-18T03:46:40;7.93;;;4.00;;
3718;SDS011;1875;52.492;6.860;2022-12-18T03:49:13;8.25;;;4.00;;
3718;SDS011;1875;52.492;6.860;2022-12-18T03:51:46;10.50;;;5.78;;
3718;SDS011;1875;52.492;6.860;2022-12-18T03:54:16;7.47;;;3.22;;
3718;SDS011;1875;52.492;6.860;2022-12-18T03:56:46;9.30;;;4.40;;
3718;SDS011;1875;52.492;6.860;2022-12-18T03:59:15;8.25;;;3.70;;
3718;SDS011;1875;52.492;6.860;2022-12-18T04:01:45;7.30;;;3.35;;
3718;SDS011;1875;52.492;6.860;2022-12-18T04:04:14;8.45;;;5.15;;
3718;SDS011;1875;52.492;6.860;2022-12-18T04:06:42;6.32;;;2.60;;
3718;SDS011;1875;52.492;6.860;2022-12-18T04:09:11;6.85;;;3.15;;
3718;SDS011;1875;52.492;6.860;2022-12-18T04:11:39;6.85;;;3.25;;
3718;SDS011;1875;52.492;6.860;2022-12-18T04:14:08;5.50;;;3.53;;
3718;SDS011;1875;52.492;6.860;2022-12-18T04:16:43;6.63;;;3.95;;
3718;SDS011;1875;52.492;6.860;2022-12-18T04:19:11;5.05;;;3.05;;
3718;SDS011;1875;52.492;6.860;2022-12-18T04:21:38;6.28;;;2.22;;
3718;SDS011;1875;52.492;6.860;2022-12-18T04:24:06;4.38;;;2.90;;
3718;SDS011;1875;52.492;6.860;2022-12-18T04:26:34;4.75;;;2.70;;
3718;SDS011;1875;52.492;6.860;2022-12-18T04:29:02;5.82;;;4.40;;
3718;SDS011;1875;52.492;6.860;2022-12-18T04:31:31;5.30;;;3.00;;
3718;SDS011;1875;52.492;6.860;2022-12-18T04:33:59;4.38;;;2.20;;
3718;SDS011;1875;52.492;6.860;2022-12-18T04:36:26;3.72;;;2.17;;
3718;SDS011;1875;52.492;6.860;2022-12-18T04:38:54;5.63;;;3.20;;
3718;SDS011;1875;52.492;6.860;2022-12-18T04:41:22;4.78;;;2.47;;
3718;SDS011;1875;52.492;6.860;2022-12-18T04:43:50;6.13;;;4.45;;
3718;SDS011;1875;52.492;6.860;2022-12-18T04:46:17;5.15;;;2.35;;
3718;SDS011;1875;52.492;6.860;2022-12-18T04:48:47;5.05;;;2.25;;
3718;SDS011;1875;52.492;6.860;2022-12-18T04:51:14;5.10;;;4.57;;
3718;SDS011;1875;52.492;6.860;2022-12-18T04:53:48;4.90;;;3.03;;
3718;SDS011;1875;52.492;6.860;2022-12-18T04:56:16;4.43;;;2.80;;
3718;SDS011;1875;52.492;6.860;2022-12-18T04:58:44;5.15;;;3.20;;
3718;SDS011;1875;52.492;6.860;2022-12-18T05:01:12;4.78;;;2.55;;
3718;SDS011;1875;52.492;6.860;2022-12-18T05:03:42;3.85;;;3.10;;
3718;SDS011;1875;52.492;6.860;2022-12-18T05:06:12;4.15;;;3.83;;
3718;SDS011;1875;52.492;6.860;2022-12-18T05:08:39;2.55;;;2.25;;
3718;SDS011;1875;52.492;6.860;2022-12-18T05:11:08;4.28;;;3.88;;
3718;SDS011;1875;52.492;6.860;2022-12-18T05:13:37;3.72;;;3.42;;
3718;SDS011;1875;52.492;6.860;2022-12-18T05:16:06;4.00;;;3.40;;
3718;SDS011;1875;52.492;6.860;2022-12-18T05:18:34;4.40;;;2.75;;
3718;SDS011;1875;52.492;6.860;2022-12-18T05:21:02;5.22;;;4.10;;
3718;SDS011;1875;52.492;6.860;2022-12-18T05:23:32;2.78;;;1.90;;
3718;SDS011;1875;52.492;6.860;2022-12-18T05:26:03;2.85;;;2.65;;
3718;SDS011;1875;52.492;6.860;2022-12-18T05:28:35;3.47;;;2.47;;
3718;SDS011;1875;52.492;6.860;2022-12-18T05:31:03;2.63;;;2.40;;
3718;SDS011;1875;52.492;6.860;2022-12-18T05:33:32;2.75;;;2.53;;
3718;SDS011;1875;52.492;6.860;2022-12-18T05:36:01;8.40;;;5.90;;
3718;SDS011;1875;52.492;6.860;2022-12-18T05:38:32;4.07;;;1.80;;
3718;SDS011;1875;52.492;6.860;2022-12-18T05:41:01;7.13;;;3.90;;
3718;SDS011;1875;52.492;6.860;2022-12-18T05:43:29;2.97;;;2.22;;
3718;SDS011;1875;52.492;6.860;2022-12-18T05:45:57;4.40;;;3.45;;
3718;SDS011;1875;52.492;6.860;2022-12-18T05:48:24;2.95;;;2.60;;
3718;SDS011;1875;52.492;6.860;2022-12-18T05:50:52;3.70;;;3.40;;
3718;SDS011;1875;52.492;6.860;2022-12-18T05:53:20;2.70;;;2.50;;
3718;SDS011;1875;52.492;6.860;2022-12-18T05:55:49;2.55;;;1.95;;
3718;SDS011;1875;52.492;6.860;2022-12-18T05:58:17;2.78;;;2.25;;
3718;SDS011;1875;52.492;6.860;2022-12-18T06:00:45;2.90;;;2.60;;
3718;SDS011;1875;52.492;6.860;2022-12-18T06:03:13;5.95;;;4.97;;
3718;SDS011;1875;52.492;6.860;2022-12-18T06:05:42;2.65;;;2.05;;
3718;SDS011;1875;52.492;6.860;2022-12-18T06:08:11;3.20;;;2.90;;
3718;SDS011;1875;52.492;6.860;2022-12-18T06:10:39;2.97;;;2.65;;
3718;SDS011;1875;52.492;6.860;2022-12-18T06:13:09;3.80;;;3.50;;
3718;SDS011;1875;52.492;6.860;2022-12-18T06:15:36;2.63;;;2.10;;
3718;SDS011;1875;52.492;6.860;2022-12-18T06:18:05;4.82;;;3.40;;
3718;SDS011;1875;52.492;6.860;2022-12-18T06:20:32;2.97;;;2.65;;
3718;SDS011;1875;52.492;6.860;2022-12-18T06:23:02;2.33;;;1.90;;
3718;SDS011;1875;52.492;6.860;2022-12-18T06:25:30;2.22;;;1.73;;
3718;SDS011;1875;52.492;6.860;2022-12-18T06:27:58;4.43;;;3.28;;
3718;SDS011;1875;52.492;6.860;2022-12-18T06:30:27;3.00;;;2.50;;
3718;SDS011;1875;52.492;6.860;2022-12-18T06:32:55;4.00;;;2.45;;
3718;SDS011;1875;52.492;6.860;2022-12-18T06:35:22;2.50;;;2.13;;
3718;SDS011;1875;52.492;6.860;2022-12-18T06:37:50;3.15;;;2.13;;
3718;SDS011;1875;52.492;6.860;2022-12-18T06:40:18;3.08;;;2.30;;
3718;SDS011;1875;52.492;6.860;2022-12-18T06:42:46;2.58;;;2.22;;
3718;SDS011;1875;52.492;6.860;2022-12-18T06:45:14;4.00;;;3.67;;
3718;SDS011;1875;52.492;6.860;2022-12-18T06:47:43;2.53;;;2.22;;
3718;SDS011;1875;52.492;6.860;2022-12-18T06:50:11;3.78;;;2.38;;
3718;SDS011;1875;52.492;6.860;2022-12-18T06:52:39;3.33;;;2.45;;
3718;SDS011;1875;52.492;6.860;2022-12-18T06:55:07;3.08;;;2.80;;
3718;SDS011;1875;52.492;6.860;2022-12-18T06:57:36;2.88;;;2.55;;
3718;SDS011;1875;52.492;6.860;2022-12-18T07:00:05;3.40;;;3.13;;
3718;SDS011;1875;52.492;6.860;2022-12-18T07:02:34;3.05;;;2.53;;
3718;SDS011;1875;52.492;6.860;2022-12-18T07:05:03;4.88;;;3.58;;
3718;SDS011;1875;52.492;6.860;2022-12-18T07:07:36;3.05;;;2.20;;
3718;SDS011;1875;52.492;6.860;2022-12-18T07:10:04;5.47;;;5.05;;
3718;SDS011;1875;52.492;6.860;2022-12-18T07:12:32;2.92;;;2.22;;
3718;SDS011;1875;52.492;6.860;2022-12-18T07:15:00;3.55;;;2.10;;
3718;SDS011;1875;52.492;6.860;2022-12-18T07:17:28;2.30;;;2.10;;
3718;SDS011;1875;52.492;6.860;2022-12-18T07:19:56;3.83;;;1.50;;
3718;SDS011;1875;52.492;6.860;2022-12-18T07:22:25;4.82;;;4.38;;
3718;SDS011;1875;52.492;6.860;2022-12-18T07:24:53;2.67;;;2.40;;
3718;SDS011;1875;52.492;6.860;2022-12-18T07:27:21;2.78;;;2.05;;
3718;SDS011;1875;52.492;6.860;2022-12-18T07:29:49;3.00;;;2.40;;
3718;SDS011;1875;52.492;6.860;2022-12-18T07:32:17;4.85;;;2.50;;
3718;SDS011;1875;52.492;6.860;2022-12-18T07:34:45;2.20;;;1.85;;
3718;SDS011;1875;52.492;6.860;2022-12-18T07:37:12;5.85;;;4.28;;
3718;SDS011;1875;52.492;6.860;2022-12-18T07:39:41;2.83;;;1.83;;
3718;SDS011;1875;52.492;6.860;2022-12-18T07:42:09;3.15;;;2.80;;
3718;SDS011;1875;52.492;6.860;2022-12-18T07:44:54;2.67;;;2.33;;
3718;SDS011;1875;52.492;6.860;2022-12-18T07:47:22;2.63;;;2.05;;
3718;SDS011;1875;52.492;6.860;2022-12-18T07:49:50;3.03;;;2.25;;
3718;SDS011;1875;52.492;6.860;2022-12-18T07:52:17;3.10;;;1.70;;
3718;SDS011;1875;52.492;6.860;2022-12-18T07:57:20;137.02;;;54.22;;
3718;SDS011;1875;52.492;6.860;2022-12-18T08:00:08;5.35;;;3.72;;
3718;SDS011;1875;52.492;6.860;2022-12-18T08:02:36;2.88;;;1.80;;
3718;SDS011;1875;52.492;6.860;2022-12-18T08:05:04;9.50;;;5.57;;
3718;SDS011;1875;52.492;6.860;2022-12-18T08:07:32;3.40;;;2.00;;
3718;SDS011;1875;52.492;6.860;2022-12-18T08:10:01;4.70;;;2.83;;
3718;SDS011;1875;52.492;6.860;2022-12-18T08:12:29;3.10;;;2.20;;
3718;SDS011;1875;52.492;6.860;2022-12-18T08:14:56;3.10;;;1.85;;
3718;SDS011;1875;52.492;6.860;2022-12-18T08:17:24;5.10;;;2.38;;
3718;SDS011;1875;52.492;6.860;2022-12-18T08:19:52;3.97;;;2.63;;
3718;SDS011;1875;52.492;6.860;2022-12-18T08:22:20;5.68;;;2.60;;
3718;SDS011;1875;52.492;6.860;2022-12-18T08:24:47;5.53;;;2.17;;
3718;SDS011;1875;52.492;6.860;2022-12-18T08:27:16;5.45;;;2.22;;
3718;SDS011;1875;52.492;6.860;2022-12-18T08:29:59;4.43;;;2.38;;
3718;SDS011;1875;52.492;6.860;2022-12-18T08:32:27;5.07;;;2.10;;
3718;SDS011;1875;52.492;6.860;2022-12-18T08:34:55;4.15;;;2.88;;
3718;SDS011;1875;52.492;6.860;2022-12-18T08:37:23;4.82;;;2.42;;
3718;SDS011;1875;52.492;6.860;2022-12-18T08:39:50;5.43;;;2.28;;
3718;SDS011;1875;52.492;6.860;2022-12-18T08:42:19;5.70;;;3.42;;
3718;SDS011;1875;52.492;6.860;2022-12-18T08:45:05;6.22;;;5.53;;
3718;SDS011;1875;52.492;6.860;2022-12-18T08:47:33;6.22;;;2.70;;
3718;SDS011;1875;52.492;6.860;2022-12-18T08:50:01;8.68;;;5.97;;
3718;SDS011;1875;52.492;6.860;2022-12-18T08:52:31;5.00;;;2.85;;
3718;SDS011;1875;52.492;6.860;2022-12-18T08:54:58;4.28;;;2.58;;
3718;SDS011;1875;52.492;6.860;2022-12-18T08:57:28;6.50;;;2.65;;
3718;SDS011;1875;52.492;6.860;2022-12-18T08:59:55;6.68;;;2.95;;
3718;SDS011;1875;52.492;6.860;2022-12-18T09:02:23;6.07;;;2.13;;
3718;SDS011;1875;52.492;6.860;2022-12-18T09:04:51;7.03;;;2.67;;
3718;SDS011;1875;52.492;6.860;2022-12-18T09:07:23;7.68;;;3.63;;
3718;SDS011;1875;52.492;6.860;2022-12-18T09:09:50;7.82;;;3.47;;
3718;SDS011;1875;52.492;6.860;2022-12-18T09:12:18;7.32;;;3.47;;
3718;SDS011;1875;52.492;6.860;2022-12-18T09:14:47;8.15;;;3.53;;
3718;SDS011;1875;52.492;6.860;2022-12-18T09:17:15;7.95;;;3.55;;
3718;SDS011;1875;52.492;6.860;2022-12-18T09:19:42;10.63;;;5.20;;
3718;SDS011;1875;52.492;6.860;2022-12-18T09:22:10;9.60;;;6.05;;
3718;SDS011;1875;52.492;6.860;2022-12-18T09:24:38;11.43;;;5.53;;
3718;SDS011;1875;52.492;6.860;2022-12-18T09:27:06;13.82;;;8.23;;
3718;SDS011;1875;52.492;6.860;2022-12-18T09:29:33;7.60;;;5.47;;
3718;SDS011;1875;52.492;6.860;2022-12-18T09:32:03;18.67;;;10.93;;
3718;SDS011;1875;52.492;6.860;2022-12-18T09:34:31;14.15;;;6.95;;
3718;SDS011;1875;52.492;6.860;2022-12-18T09:36:58;45.00;;;20.30;;
3718;SDS011;1875;52.492;6.860;2022-12-18T09:39:26;45.90;;;19.13;;
3718;SDS011;1875;52.492;6.860;2022-12-18T09:41:54;52.78;;;20.00;;
3718;SDS011;1875;52.492;6.860;2022-12-18T09:44:24;55.13;;;21.38;;
3718;SDS011;1875;52.492;6.860;2022-12-18T09:46:54;52.97;;;21.33;;
3718;SDS011;1875;52.492;6.860;2022-12-18T09:49:30;55.20;;;21.35;;
3718;SDS011;1875;52.492;6.860;2022-12-18T09:52:01;37.47;;;17.38;;
3718;SDS011;1875;52.492;6.860;2022-12-18T09:54:32;48.75;;;20.02;;
3718;SDS011;1875;52.492;6.860;2022-12-18T09:57:03;39.08;;;15.27;;
3718;SDS011;1875;52.492;6.860;2022-12-18T09:59:32;44.22;;;17.75;;
3718;SDS011;1875;52.492;6.860;2022-12-18T10:02:11;56.83;;;21.98;;
3718;SDS011;1875;52.492;6.860;2022-12-18T10:04:42;61.25;;;21.60;;
3718;SDS011;1875;52.492;6.860;2022-12-18T10:07:13;53.53;;;20.60;;
3718;SDS011;1875;52.492;6.860;2022-12-18T10:09:44;49.83;;;18.35;;
3718;SDS011;1875;52.492;6.860;2022-12-18T10:12:20;51.92;;;21.95;;
3718;SDS011;1875;52.492;6.860;2022-12-18T10:14:52;51.50;;;20.23;;
3718;SDS011;1875;52.492;6.860;2022-12-18T10:17:22;58.88;;;21.48;;
3718;SDS011;1875;52.492;6.860;2022-12-18T10:19:56;51.67;;;20.63;;
3718;SDS011;1875;52.492;6.860;2022-12-18T10:22:28;62.10;;;22.95;;
3718;SDS011;1875;52.492;6.860;2022-12-18T10:25:03;66.57;;;25.27;;
3718;SDS011;1875;52.492;6.860;2022-12-18T10:27:33;42.17;;;17.42;;
3718;SDS011;1875;52.492;6.860;2022-12-18T10:30:04;74.60;;;27.15;;
3718;SDS011;1875;52.492;6.860;2022-12-18T10:32:32;64.22;;;21.92;;
3718;SDS011;1875;52.492;6.860;2022-12-18T10:35:01;64.35;;;24.88;;
3718;SDS011;1875;52.492;6.860;2022-12-18T10:37:29;50.60;;;20.67;;
3718;SDS011;1875;52.492;6.860;2022-12-18T10:40:08;67.93;;;22.75;;
3718;SDS011;1875;52.492;6.860;2022-12-18T10:42:45;54.78;;;22.00;;
3718;SDS011;1875;52.492;6.860;2022-12-18T10:45:13;72.88;;;25.15;;
3718;SDS011;1875;52.492;6.860;2022-12-18T10:47:43;74.18;;;22.90;;
3718;SDS011;1875;52.492;6.860;2022-12-18T10:50:22;54.90;;;22.15;;
3718;SDS011;1875;52.492;6.860;2022-12-18T10:53:13;55.00;;;20.63;;
3718;SDS011;1875;52.492;6.860;2022-12-18T10:55:46;62.60;;;23.83;;
3718;SDS011;1875;52.492;6.860;2022-12-18T10:58:21;74.43;;;24.95;;
3718;SDS011;1875;52.492;6.860;2022-12-18T11:01:05;69.20;;;25.95;;
3718;SDS011;1875;52.492;6.860;2022-12-18T11:03:36;64.97;;;23.15;;
3718;SDS011;1875;52.492;6.860;2022-12-18T11:06:07;83.90;;;29.83;;
3718;SDS011;1875;52.492;6.860;2022-12-18T11:08:36;75.85;;;24.50;;
3718;SDS011;1875;52.492;6.860;2022-12-18T11:11:07;83.60;;;28.38;;
3718;SDS011;1875;52.492;6.860;2022-12-18T11:13:42;69.93;;;24.27;;
3718;SDS011;1875;52.492;6.860;2022-12-18T11:16:20;67.72;;;24.30;;
3718;SDS011;1875;52.492;6.860;2022-12-18T11:18:50;78.10;;;24.20;;
3718;SDS011;1875;52.492;6.860;2022-12-18T11:21:19;68.80;;;25.70;;
3718;SDS011;1875;52.492;6.860;2022-12-18T11:23:47;79.68;;;25.30;;
3718;SDS011;1875;52.492;6.860;2022-12-18T11:26:17;75.05;;;25.25;;
3718;SDS011;1875;52.492;6.860;2022-12-18T11:28:46;88.00;;;27.63;;
3718;SDS011;1875;52.492;6.860;2022-12-18T11:31:19;74.82;;;26.15;;
3718;SDS011;1875;52.492;6.860;2022-12-18T11:33:54;73.88;;;25.55;;
3718;SDS011;1875;52.492;6.860;2022-12-18T11:36:46;73.35;;;24.25;;
3718;SDS011;1875;52.492;6.860;2022-12-18T11:39:16;77.90;;;25.55;;
3718;SDS011;1875;52.492;6.860;2022-12-18T11:41:49;80.40;;;26.05;;
3718;SDS011;1875;52.492;6.860;2022-12-18T11:44:41;72.88;;;23.35;;
3718;SDS011;1875;52.492;6.860;2022-12-18T11:47:13;81.23;;;25.70;;
3718;SDS011;1875;52.492;6.860;2022-12-18T11:49:47;79.13;;;24.67;;
3718;SDS011;1875;52.492;6.860;2022-12-18T11:52:18;50.03;;;23.08;;
3718;SDS011;1875;52.492;6.860;2022-12-18T11:54:50;81.03;;;25.20;;
3718;SDS011;1875;52.492;6.860;2022-12-18T11:57:24;80.75;;;26.05;;
3718;SDS011;1875;52.492;6.860;2022-12-18T12:00:01;85.63;;;28.52;;
3718;SDS011;1875;52.492;6.860;2022-12-18T12:02:39;62.50;;;23.65;;
3718;SDS011;1875;52.492;6.860;2022-12-18T12:05:20;75.32;;;24.52;;
3718;SDS011;1875;52.492;6.860;2022-12-18T12:07:56;74.53;;;25.00;;
3718;SDS011;1875;52.492;6.860;2022-12-18T12:10:29;79.38;;;26.83;;
3718;SDS011;1875;52.492;6.860;2022-12-18T12:13:09;85.18;;;28.02;;
3718;SDS011;1875;52.492;6.860;2022-12-18T12:15:46;76.95;;;24.38;;
3718;SDS011;1875;52.492;6.860;2022-12-18T12:18:22;75.10;;;26.42;;
3718;SDS011;1875;52.492;6.860;2022-12-18T12:20:53;83.50;;;25.83;;
3718;SDS011;1875;52.492;6.860;2022-12-18T12:23:30;69.88;;;25.55;;
3718;SDS011;1875;52.492;6.860;2022-12-18T12:26:05;76.43;;;26.47;;
3718;SDS011;1875;52.492;6.860;2022-12-18T12:28:39;74.35;;;25.88;;
3718;SDS011;1875;52.492;6.860;2022-12-18T12:31:17;78.70;;;25.73;;
3718;SDS011;1875;52.492;6.860;2022-12-18T12:33:52;72.37;;;26.07;;
3718;SDS011;1875;52.492;6.860;2022-12-18T12:36:26;71.50;;;24.77;;
3718;SDS011;1875;52.492;6.860;2022-12-18T12:39:01;73.88;;;25.52;;
3718;SDS011;1875;52.492;6.860;2022-12-18T12:41:35;68.75;;;25.20;;
3718;SDS011;1875;52.492;6.860;2022-12-18T12:44:22;83.70;;;27.10;;
3718;SDS011;1875;52.492;6.860;2022-12-18T12:46:52;81.10;;;26.10;;
3718;SDS011;1875;52.492;6.860;2022-12-18T12:49:23;87.43;;;27.20;;
3718;SDS011;1875;52.492;6.860;2022-12-18T12:51:56;61.67;;;25.73;;
3718;SDS011;1875;52.492;6.860;2022-12-18T12:54:31;67.97;;;25.05;;
3718;SDS011;1875;52.492;6.860;2022-12-18T12:57:02;74.72;;;25.52;;
3718;SDS011;1875;52.492;6.860;2022-12-18T12:59:36;69.80;;;24.60;;
3718;SDS011;1875;52.492;6.860;2022-12-18T13:02:10;77.70;;;29.38;;
3718;SDS011;1875;52.492;6.860;2022-12-18T13:04:45;69.25;;;26.15;;
3718;SDS011;1875;52.492;6.860;2022-12-18T13:07:17;78.40;;;27.13;;
3718;SDS011;1875;52.492;6.860;2022-12-18T13:12:55;82.77;;;25.43;;
3718;SDS011;1875;52.492;6.860;2022-12-18T13:15:24;81.43;;;26.33;;
3718;SDS011;1875;52.492;6.860;2022-12-18T13:18:06;75.35;;;26.02;;
3718;SDS011;1875;52.492;6.860;2022-12-18T13:20:40;80.67;;;25.13;;
3718;SDS011;1875;52.492;6.860;2022-12-18T13:23:31;77.15;;;27.30;;
3718;SDS011;1875;52.492;6.860;2022-12-18T13:28:59;73.32;;;26.05;;
3718;SDS011;1875;52.492;6.860;2022-12-18T13:34:36;72.83;;;25.73;;
3718;SDS011;1875;52.492;6.860;2022-12-18T13:43:24;69.20;;;24.50;;
3718;SDS011;1875;52.492;6.860;2022-12-18T13:46:04;83.07;;;26.30;;
3718;SDS011;1875;52.492;6.860;2022-12-18T13:48:36;78.13;;;25.13;;
3718;SDS011;1875;52.492;6.860;2022-12-18T13:51:05;87.63;;;31.13;;
3718;SDS011;1875;52.492;6.860;2022-12-18T13:53:35;84.07;;;26.57;;
3718;SDS011;1875;52.492;6.860;2022-12-18T13:56:06;73.53;;;27.77;;
3718;SDS011;1875;52.492;6.860;2022-12-18T13:58:35;80.67;;;25.47;;
3718;SDS011;1875;52.492;6.860;2022-12-18T14:01:04;86.10;;;30.67;;
3718;SDS011;1875;52.492;6.860;2022-12-18T14:03:33;50.33;;;23.98;;
3718;SDS011;1875;52.492;6.860;2022-12-18T14:06:02;77.60;;;27.57;;
3718;SDS011;1875;52.492;6.860;2022-12-18T14:08:33;80.72;;;25.85;;
3718;SDS011;1875;52.492;6.860;2022-12-18T14:11:05;86.53;;;28.60;;
3718;SDS011;1875;52.492;6.860;2022-12-18T14:13:39;71.53;;;26.00;;
3718;SDS011;1875;52.492;6.860;2022-12-18T14:16:11;68.25;;;26.48;;
3718;SDS011;1875;52.492;6.860;2022-12-18T14:18:44;70.93;;;25.33;;
3718;SDS011;1875;52.492;6.860;2022-12-18T14:21:17;66.20;;;24.70;;
3718;SDS011;1875;52.492;6.860;2022-12-18T14:23:46;80.83;;;25.03;;
3718;SDS011;1875;52.492;6.860;2022-12-18T14:26:20;72.63;;;25.60;;
3718;SDS011;1875;52.492;6.860;2022-12-18T14:28:51;62.80;;;21.63;;
3718;SDS011;1875;52.492;6.860;2022-12-18T14:31:21;82.27;;;25.80;;
3718;SDS011;1875;52.492;6.860;2022-12-18T14:33:50;70.87;;;25.60;;
3718;SDS011;1875;52.492;6.860;2022-12-18T14:36:19;67.30;;;24.98;;
3718;SDS011;1875;52.492;6.860;2022-12-18T14:38:48;74.80;;;24.80;;
3718;SDS011;1875;52.492;6.860;2022-12-18T14:41:17;68.85;;;24.13;;
3718;SDS011;1875;52.492;6.860;2022-12-18T14:43:47;72.13;;;25.50;;
3718;SDS011;1875;52.492;6.860;2022-12-18T14:46:27;74.30;;;25.88;;
3718;SDS011;1875;52.492;6.860;2022-12-18T14:48:56;71.40;;;23.47;;
3718;SDS011;1875;52.492;6.860;2022-12-18T14:51:24;67.97;;;24.80;;
3718;SDS011;1875;52.492;6.860;2022-12-18T14:53:56;65.90;;;25.52;;
3718;SDS011;1875;52.492;6.860;2022-12-18T14:56:25;81.47;;;25.08;;
3718;SDS011;1875;52.492;6.860;2022-12-18T14:58:54;68.88;;;25.38;;
3718;SDS011;1875;52.492;6.860;2022-12-18T15:01:28;45.83;;;21.63;;
3718;SDS011;1875;52.492;6.860;2022-12-18T15:03:58;79.00;;;24.93;;
3718;SDS011;1875;52.492;6.860;2022-12-18T15:06:28;70.20;;;25.13;;
3718;SDS011;1875;52.492;6.860;2022-12-18T15:08:58;76.83;;;26.47;;
3718;SDS011;1875;52.492;6.860;2022-12-18T15:11:30;71.95;;;26.63;;
3718;SDS011;1875;52.492;6.860;2022-12-18T15:17:06;86.95;;;28.35;;
3718;SDS011;1875;52.492;6.860;2022-12-18T15:19:42;73.25;;;25.98;;
3718;SDS011;1875;52.492;6.860;2022-12-18T15:22:16;67.28;;;25.23;;
3718;SDS011;1875;52.492;6.860;2022-12-18T15:24:47;76.97;;;24.63;;
3718;SDS011;1875;52.492;6.860;2022-12-18T15:27:23;77.75;;;24.20;;
3718;SDS011;1875;52.492;6.860;2022-12-18T15:29:59;70.75;;;23.70;;
3718;SDS011;1875;52.492;6.860;2022-12-18T15:32:29;62.28;;;24.88;;
3718;SDS011;1875;52.492;6.860;2022-12-18T15:35:02;70.15;;;25.13;;
3718;SDS011;1875;52.492;6.860;2022-12-18T15:37:35;59.67;;;24.63;;
3718;SDS011;1875;52.492;6.860;2022-12-18T15:40:12;65.22;;;23.85;;
3718;SDS011;1875;52.492;6.860;2022-12-18T15:42:42;69.67;;;22.27;;
3718;SDS011;1875;52.492;6.860;2022-12-18T15:45:28;76.57;;;25.20;;
3718;SDS011;1875;52.492;6.860;2022-12-18T15:47:57;66.97;;;23.40;;